Time;durP1;ratioP1;P1;durP2;ratioP2;P2;SDS_P1;SDS_P2;PMS_P1;PMS_P2;Temp;Humidity;BMP_temperature;BMP_pressure;BME280_temperature;BME280_humidity;BME280_pressure;Samples;Min_cycle;Max_cycle;Signal;HPM_P1;HPM_P2
2022/08/01 00:01:11;;;;;;;13.90;10.10;;;19.00;99.90;;;;;;5075042;28;20036;-74
2022/08/01 00:03:37;;;;;;;13.13;9.68;;;19.00;99.90;;;;;;5075053;28;20439;-75
2022/08/01 00:06:02;;;;;;;13.10;10.13;;;19.00;99.90;;;;;;5074929;28;20119;-75
2022/08/01 00:08:28;;;;;;;17.70;10.45;;;19.00;99.90;;;;;;5074955;28;20037;-75
2022/08/01 00:10:53;;;;;;;13.73;10.10;;;19.00;99.90;;;;;;5075179;28;20094;-75
2022/08/01 00:13:19;;;;;;;15.18;11.48;;;19.00;99.90;;;;;;5074887;28;20064;-75
2022/08/01 00:15:45;;;;;;;12.80;9.88;;;19.00;99.90;;;;;;5074708;28;20051;-74
2022/08/01 00:18:10;;;;;;;15.77;10.73;;;19.00;99.90;;;;;;5075069;28;20394;-75
2022/08/01 00:20:36;;;;;;;13.82;10.00;;;19.00;99.90;;;;;;5074585;28;20171;-74
2022/08/01 00:23:04;;;;;;;15.77;10.75;;;18.90;99.90;;;;;;5074922;28;20068;-74
2022/08/01 00:25:30;;;;;;;14.05;10.35;;;19.00;99.90;;;;;;5058133;28;20045;-75
2022/08/01 00:27:56;;;;;;;12.23;9.77;;;18.90;99.90;;;;;;5074604;28;20170;-75
2022/08/01 00:30:21;;;;;;;12.20;8.85;;;18.90;99.90;;;;;;5074850;28;20093;-74
2022/08/01 00:32:47;;;;;;;15.85;9.68;;;18.90;99.90;;;;;;5074533;28;20557;-74
2022/08/01 00:35:13;;;;;;;11.82;8.30;;;18.90;99.90;;;;;;5057815;28;20041;-74
2022/08/01 00:37:39;;;;;;;12.85;9.25;;;18.80;99.90;;;;;;5074405;28;20493;-75
2022/08/01 00:40:05;;;;;;;12.93;8.68;;;18.80;99.90;;;;;;5074304;28;20094;-75
2022/08/01 00:42:31;;;;;;;9.25;7.70;;;18.80;99.90;;;;;;5074054;28;20040;-75
2022/08/01 00:44:56;;;;;;;9.73;8.07;;;18.80;99.90;;;;;;5074501;28;20037;-74
2022/08/01 00:47:22;;;;;;;10.52;8.07;;;18.80;99.90;;;;;;5074294;28;20488;-75
2022/08/01 00:49:47;;;;;;;13.13;9.00;;;18.80;99.90;;;;;;5074224;28;20191;-75
2022/08/01 00:52:13;;;;;;;10.70;8.45;;;18.80;99.90;;;;;;5074178;28;20047;-75
2022/08/01 00:54:39;;;;;;;13.68;8.93;;;18.80;99.90;;;;;;5074095;28;20087;-75
2022/08/01 00:57:05;;;;;;;11.77;8.52;;;18.80;99.90;;;;;;5074081;28;20044;-75
2022/08/01 00:59:31;;;;;;;11.75;8.65;;;18.70;99.90;;;;;;5073971;28;20085;-74
2022/08/01 01:01:56;;;;;;;13.10;7.57;;;18.70;99.90;;;;;;5073980;28;20400;-75
2022/08/01 01:04:22;;;;;;;12.43;8.13;;;18.70;99.90;;;;;;5057212;28;20040;-74
2022/08/01 01:07:09;;;;;;;11.80;8.88;;;18.70;99.90;;;;;;5073878;28;20047;-74
2022/08/01 01:10:01;;;;;;;9.57;8.10;;;18.70;99.90;;;;;;5074101;28;20044;-75
2022/08/01 01:12:51;;;;;;;11.40;7.45;;;18.70;99.90;;;;;;5071663;28;20048;-75
2022/08/01 01:15:36;;;;;;;10.40;7.25;;;18.70;99.90;;;;;;5057047;28;20050;-74
2022/08/01 01:18:09;;;;;;;9.52;6.22;;;18.70;99.90;;;;;;5073720;28;20036;-74
2022/08/01 01:20:38;;;;;;;7.93;6.40;;;18.60;99.90;;;;;;5057067;28;20119;-75
2022/08/01 01:23:16;;;;;;;10.57;5.80;;;18.60;99.90;;;;;;5056931;28;20428;-74
2022/08/01 01:26:23;;;;;;;6.00;4.57;;;18.60;99.90;;;;;;5073523;28;20563;-74
2022/08/01 01:29:01;;;;;;;9.35;4.75;;;18.60;99.90;;;;;;5073732;28;20109;-74
2022/08/01 01:31:27;;;;;;;7.50;4.07;;;18.60;99.90;;;;;;5073485;28;20036;-75
2022/08/01 01:33:55;;;;;;;5.53;3.53;;;18.60;99.90;;;;;;5056681;28;20127;-74
2022/08/01 01:36:24;;;;;;;4.50;3.10;;;18.60;99.90;;;;;;5073283;28;20036;-74
2022/08/01 01:38:52;;;;;;;6.45;2.85;;;18.60;99.90;;;;;;5056830;28;20591;-74
2022/08/01 01:41:18;;;;;;;4.57;2.63;;;18.60;99.90;;;;;;5073172;28;20041;-75
2022/08/01 01:43:46;;;;;;;5.15;2.55;;;18.60;99.90;;;;;;5073487;28;20119;-75
2022/08/01 01:46:15;;;;;;;3.58;2.42;;;18.60;99.90;;;;;;5073010;28;20048;-75
2022/08/01 01:48:44;;;;;;;3.35;2.20;;;18.60;99.90;;;;;;5073114;28;20124;-74
2022/08/01 01:51:11;;;;;;;3.50;2.17;;;18.60;99.90;;;;;;5073098;28;20043;-74
2022/08/01 01:53:38;;;;;;;3.25;1.90;;;18.60;99.90;;;;;;5072200;28;20051;-74
2022/08/01 01:56:04;;;;;;;3.25;1.98;;;18.60;99.90;;;;;;5072879;28;20044;-75
2022/08/01 01:58:32;;;;;;;4.45;2.20;;;18.60;99.90;;;;;;5073419;28;20397;-74
2022/08/01 02:01:01;;;;;;;5.38;2.80;;;18.60;99.90;;;;;;5072751;28;20516;-75
2022/08/01 02:03:28;;;;;;;5.25;2.72;;;18.60;99.90;;;;;;5073060;28;20090;-75
2022/08/01 02:05:55;;;;;;;6.40;2.90;;;18.60;99.90;;;;;;5056081;28;20048;-75
2022/08/01 02:08:23;;;;;;;3.83;2.50;;;18.60;99.90;;;;;;5072661;28;20044;-74
2022/08/01 02:13:38;;;;;;;4.95;2.60;;;18.60;99.90;;;;;;5072608;28;20487;-74
2022/08/01 02:16:04;;;;;;;5.70;2.55;;;18.60;99.90;;;;;;5072755;28;20051;-74
2022/08/01 02:18:31;;;;;;;3.92;3.13;;;18.60;99.90;;;;;;5072464;28;20487;-74
2022/08/01 02:20:58;;;;;;;4.03;2.40;;;18.60;99.90;;;;;;5055692;28;20485;-75
2022/08/01 02:23:28;;;;;;;5.47;2.70;;;18.60;99.90;;;;;;5072453;28;20090;-74
2022/08/01 02:25:57;;;;;;;5.45;2.90;;;18.60;99.90;;;;;;5072922;28;20079;-74
2022/08/01 02:28:29;;;;;;;6.38;3.00;;;18.60;99.90;;;;;;5072586;28;20047;-74
2022/08/01 02:31:08;;;;;;;7.82;3.13;;;18.60;99.90;;;;;;5055741;28;20062;-75
2022/08/01 02:33:37;;;;;;;4.63;3.22;;;18.60;99.90;;;;;;5072343;28;20131;-75
2022/08/01 02:36:05;;;;;;;5.03;2.90;;;18.60;99.90;;;;;;5055427;28;20547;-74
2022/08/01 02:38:34;;;;;;;7.00;2.97;;;18.60;99.90;;;;;;5055753;28;20036;-74
2022/08/01 02:41:05;;;;;;;5.65;2.50;;;18.60;99.90;;;;;;5072183;28;20036;-75
2022/08/01 02:43:33;;;;;;;7.50;2.60;;;18.60;99.90;;;;;;5072413;28;20040;-74
2022/08/01 02:46:02;;;;;;;4.30;2.55;;;18.50;99.90;;;;;;5072054;28;20044;-74
2022/08/01 02:48:29;;;;;;;4.05;1.92;;;18.50;99.90;;;;;;5072030;28;20123;-75
2022/08/01 02:50:59;;;;;;;3.47;1.50;;;18.50;99.90;;;;;;5055613;28;20048;-75
2022/08/01 02:53:27;;;;;;;4.80;1.40;;;18.50;99.90;;;;;;5072003;28;20044;-75
2022/08/01 02:55:54;;;;;;;5.85;1.80;;;18.50;99.90;;;;;;5072198;28;20166;-74
2022/08/01 02:58:23;;;;;;;8.65;2.00;;;18.40;99.90;;;;;;5071938;28;20496;-74
2022/08/01 03:00:49;;;;;;;4.78;1.73;;;18.40;99.90;;;;;;5071926;28;20113;-74
2022/08/01 03:03:16;;;;;;;8.50;1.50;;;18.30;99.90;;;;;;5071731;28;20464;-74
2022/08/01 03:05:43;;;;;;;6.68;1.67;;;18.30;99.90;;;;;;5071802;28;20093;-74
2022/08/01 03:08:10;;;;;;;9.02;1.80;;;18.30;99.90;;;;;;5071803;28;20036;-74
2022/08/01 03:10:38;;;;;;;4.20;1.80;;;18.30;99.90;;;;;;5072044;28;20040;-74
2022/08/01 03:13:08;;;;;;;5.93;1.77;;;18.30;99.90;;;;;;5071818;28;20041;-74
2022/08/01 03:15:38;;;;;;;6.80;1.85;;;18.30;99.90;;;;;;5071718;28;20501;-75
2022/08/01 03:18:07;;;;;;;5.47;1.70;;;18.30;99.90;;;;;;5072070;28;20119;-75
2022/08/01 03:20:33;;;;;;;6.75;1.95;;;18.30;99.90;;;;;;5071652;28;20045;-75
2022/08/01 03:23:06;;;;;;;7.10;1.83;;;18.30;99.90;;;;;;5071985;28;20036;-75
2022/08/01 03:25:34;;;;;;;8.77;1.73;;;18.30;99.90;;;;;;5071621;28;20043;-74
2022/08/01 03:28:03;;;;;;;11.00;1.80;;;18.30;99.90;;;;;;5071938;28;20090;-74
2022/08/01 03:30:30;;;;;;;13.35;2.17;;;18.20;99.90;;;;;;5071642;28;20611;-74
2022/08/01 03:32:57;;;;;;;7.97;1.80;;;18.20;99.90;;;;;;5054910;28;20045;-75
2022/08/01 03:35:29;;;;;;;10.25;1.73;;;18.20;99.90;;;;;;5071529;28;20085;-74
2022/08/01 03:37:56;;;;;;;6.70;1.70;;;18.20;99.90;;;;;;5071580;28;20448;-74
2022/08/01 03:40:31;;;;;;;5.80;1.70;;;18.20;99.90;;;;;;5054704;28;20731;-75
2022/08/01 03:43:02;;;;;;;7.47;1.85;;;18.20;99.90;;;;;;5071507;28;20037;-75
2022/08/01 03:45:34;;;;;;;8.05;1.70;;;18.10;99.90;;;;;;5071706;28;20497;-74
2022/08/01 03:48:03;;;;;;;7.00;1.73;;;18.10;99.90;;;;;;5071783;28;20098;-75
2022/08/01 03:50:30;;;;;;;7.95;2.00;;;18.10;99.90;;;;;;5071389;28;20047;-75
2022/08/01 03:52:59;;;;;;;6.85;1.95;;;18.10;99.90;;;;;;5071385;28;20132;-75
2022/08/01 03:55:26;;;;;;;7.63;1.88;;;18.10;99.90;;;;;;5071250;28;20386;-74
2022/08/01 03:57:52;;;;;;;8.40;1.83;;;18.10;99.90;;;;;;5071593;28;20158;-74
2022/08/01 04:00:20;;;;;;;6.90;2.10;;;18.10;99.90;;;;;;5071277;28;20496;-74
2022/08/01 04:02:48;;;;;;;8.82;2.08;;;18.00;99.90;;;;;;5071320;28;20051;-74
2022/08/01 04:05:15;;;;;;;10.23;2.25;;;18.00;99.90;;;;;;5054826;28;20036;-74
2022/08/01 04:07:46;;;;;;;11.73;2.42;;;18.10;99.90;;;;;;5071195;28;20451;-74
2022/08/01 04:10:12;;;;;;;9.75;2.65;;;18.00;99.90;;;;;;5054614;28;20048;-75
2022/08/01 04:12:38;;;;;;;7.95;2.13;;;18.00;99.90;;;;;;5071470;28;20055;-75
2022/08/01 04:15:04;;;;;;;7.72;2.10;;;18.00;99.90;;;;;;5071121;28;20043;-74
2022/08/01 04:17:30;;;;;;;11.50;2.42;;;18.10;99.90;;;;;;5074501;28;20443;-74
2022/08/01 04:19:55;;;;;;;7.90;2.35;;;18.10;99.90;;;;;;5074612;28;20044;-74
2022/08/01 04:22:21;;;;;;;9.90;2.70;;;18.00;99.90;;;;;;5074759;28;20043;-75
2022/08/01 04:24:50;;;;;;;9.75;2.53;;;18.00;99.90;;;;;;5074884;28;20133;-75
2022/08/01 04:27:23;;;;;;;6.72;2.20;;;18.00;99.90;;;;;;5074892;28;20045;-74
2022/08/01 04:29:54;;;;;;;9.00;2.97;;;18.00;99.90;;;;;;5074901;28;20047;-74
2022/08/01 04:32:21;;;;;;;9.50;2.90;;;18.00;99.90;;;;;;5074632;28;20472;-74
2022/08/01 04:34:49;;;;;;;10.48;3.20;;;18.00;99.90;;;;;;5074446;28;20566;-74
2022/08/01 04:37:18;;;;;;;8.23;2.50;;;18.00;99.90;;;;;;5074745;28;20076;-74
2022/08/01 04:39:46;;;;;;;11.43;3.10;;;18.00;99.90;;;;;;5074344;28;20528;-74
2022/08/01 04:42:14;;;;;;;11.52;2.88;;;18.00;99.90;;;;;;5074478;28;20032;-75
2022/08/01 04:44:40;;;;;;;12.63;2.92;;;18.00;99.90;;;;;;5074313;28;20040;-74
2022/08/01 04:47:07;;;;;;;11.95;2.63;;;18.00;99.90;;;;;;5074303;28;20051;-74
2022/08/01 04:49:34;;;;;;;11.07;2.58;;;18.00;99.90;;;;;;5074228;28;20515;-74
2022/08/01 04:52:00;;;;;;;12.32;3.13;;;18.00;99.90;;;;;;5074535;28;20079;-74
2022/08/01 04:54:27;;;;;;;13.45;3.00;;;18.00;99.90;;;;;;5074200;28;20080;-75
2022/08/01 04:56:58;;;;;;;10.40;2.60;;;18.00;99.90;;;;;;5074080;28;20052;-74
2022/08/01 04:59:42;;;;;;;10.73;2.72;;;17.90;99.90;;;;;;5074347;28;20032;-74
2022/08/01 05:02:13;;;;;;;15.60;3.35;;;17.90;99.90;;;;;;5074316;28;20045;-74
2022/08/01 05:04:41;;;;;;;10.32;2.70;;;17.90;99.90;;;;;;5073890;28;20036;-74
2022/08/01 05:07:07;;;;;;;11.80;2.97;;;17.90;99.90;;;;;;5057220;28;20489;-74
2022/08/01 05:09:33;;;;;;;9.55;2.38;;;17.90;99.90;;;;;;5057259;28;20090;-74
2022/08/01 05:12:01;;;;;;;13.90;3.28;;;17.80;99.90;;;;;;5074096;28;20483;-74
2022/08/01 05:14:27;;;;;;;9.43;2.50;;;17.80;99.90;;;;;;5056982;28;20531;-74
2022/08/01 05:16:53;;;;;;;8.57;2.78;;;17.80;99.90;;;;;;5073790;28;20051;-75
2022/08/01 05:19:19;;;;;;;14.45;3.10;;;17.80;99.90;;;;;;5073793;28;20048;-74
2022/08/01 05:21:44;;;;;;;10.95;2.70;;;17.80;99.90;;;;;;5073702;28;20409;-74
2022/08/01 05:24:10;;;;;;;11.20;3.15;;;17.80;99.90;;;;;;5073585;28;20055;-74
2022/08/01 05:26:36;;;;;;;10.70;2.88;;;17.80;99.90;;;;;;5073512;28;20055;-74
2022/08/01 05:29:01;;;;;;;15.60;3.33;;;17.80;99.90;;;;;;5072673;28;20404;-74
2022/08/01 05:31:28;;;;;;;9.02;3.20;;;17.80;99.90;;;;;;5073687;28;20058;-75
2022/08/01 05:33:53;;;;;;;11.05;3.03;;;17.80;99.90;;;;;;5073422;28;20037;-75
2022/08/01 05:36:19;;;;;;;12.82;3.35;;;17.90;99.90;;;;;;5073293;28;20042;-74
2022/08/01 05:38:45;;;;;;;11.40;3.58;;;17.90;99.90;;;;;;5073317;28;20036;-75
2022/08/01 05:41:11;;;;;;;11.13;3.20;;;17.90;99.90;;;;;;5073164;28;20142;-75
2022/08/01 05:43:36;;;;;;;11.13;3.00;;;17.90;99.90;;;;;;5056543;28;20093;-74
2022/08/01 05:46:02;;;;;;;10.07;3.08;;;17.90;99.90;;;;;;5073107;28;20072;-74
2022/08/01 05:48:28;;;;;;;13.40;2.97;;;17.90;99.90;;;;;;5073115;28;20074;-74
2022/08/01 05:50:54;;;;;;;13.38;3.25;;;17.90;99.90;;;;;;5073063;28;20107;-75
2022/08/01 05:53:20;;;;;;;12.95;3.53;;;18.00;99.90;;;;;;5073012;28;20040;-75
2022/08/01 05:55:45;;;;;;;12.20;2.78;;;18.00;99.90;;;;;;5073165;28;20082;-75
2022/08/01 05:58:11;;;;;;;11.98;3.10;;;18.00;99.90;;;;;;5072900;28;20037;-75
2022/08/01 06:00:37;;;;;;;14.30;2.70;;;18.00;99.90;;;;;;5056162;28;20043;-75
2022/08/01 06:03:02;;;;;;;12.20;3.45;;;18.00;99.90;;;;;;5056245;28;20028;-75
2022/08/01 06:05:28;;;;;;;10.05;3.05;;;18.00;99.90;;;;;;5073053;28;20048;-74
2022/08/01 06:07:53;;;;;;;13.88;2.70;;;18.00;99.90;;;;;;5056111;28;20032;-74
2022/08/01 06:10:19;;;;;;;15.75;3.25;;;18.00;99.90;;;;;;5057150;28;20032;-74
2022/08/01 06:12:45;;;;;;;12.68;3.20;;;18.00;99.90;;;;;;5072635;28;20454;-74
2022/08/01 06:15:11;;;;;;;17.05;3.10;;;18.00;99.90;;;;;;5072525;28;20041;-74
2022/08/01 06:17:36;;;;;;;12.10;2.85;;;17.90;99.90;;;;;;5072525;28;20048;-74
2022/08/01 06:20:03;;;;;;;18.67;3.05;;;17.90;99.90;;;;;;5072358;28;20127;-74
2022/08/01 06:22:29;;;;;;;20.42;3.05;;;17.90;99.90;;;;;;5072470;28;20048;-74
2022/08/01 06:24:55;;;;;;;17.10;3.63;;;17.90;99.90;;;;;;5072421;28;20036;-74
2022/08/01 06:27:21;;;;;;;18.58;3.88;;;17.90;99.90;;;;;;5055787;28;20040;-74
2022/08/01 06:29:46;;;;;;;17.15;3.47;;;18.00;99.90;;;;;;5072375;28;20078;-74
2022/08/01 06:32:12;;;;;;;17.98;3.60;;;18.00;99.90;;;;;;5072555;28;20083;-74
2022/08/01 06:34:38;;;;;;;21.15;3.88;;;18.00;99.90;;;;;;5072162;28;20520;-73
2022/08/01 06:37:03;;;;;;;18.63;3.55;;;18.00;99.90;;;;;;5072257;28;20072;-73
2022/08/01 06:39:29;;;;;;;19.42;3.38;;;18.00;99.90;;;;;;5072044;28;20037;-73
2022/08/01 06:41:54;;;;;;;20.02;4.35;;;18.00;99.90;;;;;;5072165;28;20623;-73
2022/08/01 06:44:20;;;;;;;14.55;3.28;;;18.00;99.90;;;;;;5073598;28;20093;-73
2022/08/01 06:46:45;;;;;;;18.35;3.25;;;17.90;99.90;;;;;;5073386;28;20044;-73
2022/08/01 06:49:11;;;;;;;22.13;3.63;;;18.00;99.90;;;;;;5072071;28;20037;-73
2022/08/01 06:51:36;;;;;;;20.00;3.20;;;18.00;99.90;;;;;;5072339;28;20089;-73
2022/08/01 06:54:02;;;;;;;14.35;2.92;;;18.00;99.90;;;;;;5072053;28;20040;-73
2022/08/01 06:56:28;;;;;;;24.52;4.18;;;18.00;99.90;;;;;;5071887;28;20036;-73
2022/08/01 06:58:58;;;;;;;16.15;3.05;;;17.90;99.90;;;;;;5071937;28;20047;-73
2022/08/01 07:01:24;;;;;;;14.85;3.35;;;18.00;99.90;;;;;;5071899;28;20044;-73
2022/08/01 07:03:50;;;;;;;18.92;3.67;;;18.00;99.90;;;;;;5071894;28;20153;-73
2022/08/01 07:06:15;;;;;;;16.25;3.25;;;18.00;99.90;;;;;;5055104;28;20082;-73
2022/08/01 07:08:41;;;;;;;21.08;3.38;;;17.90;99.90;;;;;;5072130;28;20039;-73
2022/08/01 07:11:06;;;;;;;16.17;3.47;;;18.00;99.90;;;;;;5071825;28;20579;-73
2022/08/01 07:13:33;;;;;;;15.63;2.83;;;18.00;99.90;;;;;;5071823;28;20036;-72
2022/08/01 07:15:58;;;;;;;19.80;3.53;;;18.00;99.90;;;;;;5071745;28;20044;-73
2022/08/01 07:18:24;;;;;;;23.52;3.50;;;18.00;99.90;;;;;;5071761;28;20059;-73
2022/08/01 07:20:50;;;;;;;15.57;3.13;;;18.00;99.90;;;;;;5072870;28;20108;-73
2022/08/01 07:23:16;;;;;;;22.73;3.80;;;18.00;99.90;;;;;;5071721;28;20396;-73
2022/08/01 07:25:42;;;;;;;20.48;3.60;;;18.10;99.90;;;;;;5071590;28;20036;-73
2022/08/01 07:28:08;;;;;;;18.55;3.33;;;18.00;99.90;;;;;;5072162;28;20089;-74
2022/08/01 07:30:34;;;;;;;20.27;3.47;;;18.10;99.90;;;;;;5071696;28;20048;-73
2022/08/01 07:33:00;;;;;;;20.25;3.50;;;18.10;99.90;;;;;;5071753;28;20048;-74
2022/08/01 07:35:25;;;;;;;18.35;3.40;;;18.10;99.90;;;;;;5072057;28;20041;-73
2022/08/01 07:37:52;;;;;;;17.00;3.42;;;18.10;99.90;;;;;;5071976;28;20044;-73
2022/08/01 07:40:19;;;;;;;17.90;3.17;;;18.10;99.90;;;;;;5071615;28;20044;-73
2022/08/01 07:42:45;;;;;;;23.13;3.88;;;18.10;99.90;;;;;;5071487;28;20047;-74
2022/08/01 07:45:12;;;;;;;15.32;3.20;;;18.20;99.90;;;;;;5071433;28;20116;-73
2022/08/01 07:47:38;;;;;;;20.60;3.45;;;18.20;99.90;;;;;;5071469;28;20124;-73
2022/08/01 07:50:05;;;;;;;20.73;3.38;;;18.20;99.90;;;;;;5071786;28;20088;-73
2022/08/01 07:52:31;;;;;;;19.33;3.75;;;18.20;99.90;;;;;;5058683;28;20067;-73
2022/08/01 07:54:58;;;;;;;19.67;3.78;;;18.30;99.90;;;;;;5075249;28;20041;-73
2022/08/01 07:57:24;;;;;;;17.05;3.60;;;18.30;99.90;;;;;;5075576;28;20048;-73
2022/08/01 07:59:51;;;;;;;18.42;2.90;;;18.40;99.90;;;;;;5075083;28;20563;-73
2022/08/01 08:02:17;;;;;;;15.70;2.80;;;18.50;99.90;;;;;;5075202;28;20090;-73
2022/08/01 08:04:42;;;;;;;16.55;3.00;;;18.50;99.90;;;;;;5075308;28;20040;-73
2022/08/01 08:07:08;;;;;;;19.27;3.67;;;18.60;99.90;;;;;;5075035;28;20557;-73
2022/08/01 08:09:33;;;;;;;18.52;3.20;;;18.70;99.90;;;;;;5075240;28;20044;-74
2022/08/01 08:11:59;;;;;;;14.35;2.47;;;18.80;99.90;;;;;;5075247;28;20043;-72
2022/08/01 08:14:25;;;;;;;21.77;3.50;;;18.90;99.90;;;;;;5074969;28;20123;-72
2022/08/01 08:16:51;;;;;;;13.82;3.05;;;19.00;99.90;;;;;;5074977;28;20072;-73
2022/08/01 08:19:16;;;;;;;17.70;3.53;;;19.10;99.90;;;;;;5075146;28;20056;-73
2022/08/01 08:21:42;;;;;;;15.60;3.20;;;19.10;99.90;;;;;;5058326;28;20041;-73
2022/08/01 08:24:21;;;;;;;15.15;2.75;;;19.30;99.90;;;;;;5074793;28;20052;-73
2022/08/01 08:26:56;;;;;;;16.13;2.42;;;19.40;99.90;;;;;;5075106;28;20107;-73
2022/08/01 08:29:22;;;;;;;19.42;3.47;;;19.50;99.90;;;;;;5074965;28;20029;-73
2022/08/01 08:31:48;;;;;;;17.58;2.63;;;19.50;99.90;;;;;;5074608;28;20045;-73
2022/08/01 08:34:15;;;;;;;17.67;3.42;;;19.60;99.90;;;;;;5075404;28;20040;-73
2022/08/01 08:36:41;;;;;;;17.58;3.65;;;19.80;99.90;;;;;;5074450;28;20158;-73
2022/08/01 08:39:07;;;;;;;15.27;2.42;;;20.00;99.90;;;;;;5074506;28;20052;-73
2022/08/01 08:41:33;;;;;;;16.98;3.10;;;20.10;99.90;;;;;;5074385;28;20052;-73
2022/08/01 08:44:03;;;;;;;15.82;3.10;;;20.30;99.90;;;;;;5074755;28;20044;-73
2022/08/01 08:46:34;;;;;;;15.20;2.75;;;20.50;99.90;;;;;;5074510;28;20514;-73
2022/08/01 08:49:02;;;;;;;14.98;2.67;;;20.70;99.90;;;;;;5058101;28;20043;-73
2022/08/01 08:51:30;;;;;;;19.35;3.60;;;20.80;99.90;;;;;;5074279;28;20040;-73
2022/08/01 08:53:57;;;;;;;11.63;2.25;;;20.90;99.90;;;;;;5057844;28;20045;-73
2022/08/01 08:56:24;;;;;;;16.73;2.72;;;21.00;99.90;;;;;;5074421;28;20450;-72
2022/08/01 08:58:51;;;;;;;13.80;2.78;;;21.00;99.90;;;;;;5074216;28;20041;-73
2022/08/01 09:01:17;;;;;;;13.75;2.63;;;21.10;99.90;;;;;;5073878;28;20052;-73
2022/08/01 09:03:43;;;;;;;12.38;2.72;;;21.30;99.90;;;;;;5074034;28;20068;-72
2022/08/01 09:06:10;;;;;;;16.88;2.90;;;21.30;99.90;;;;;;5073943;28;20036;-73
2022/08/01 09:08:36;;;;;;;15.27;2.75;;;21.50;99.90;;;;;;5073888;28;20051;-73
2022/08/01 09:11:02;;;;;;;9.93;2.08;;;21.60;99.90;;;;;;5073860;28;20037;-73
2022/08/01 09:13:28;;;;;;;10.95;2.33;;;21.70;99.90;;;;;;5057172;28;20493;-73
2022/08/01 09:15:55;;;;;;;8.70;1.98;;;21.80;99.90;;;;;;5073741;28;20070;-73
2022/08/01 09:18:39;;;;;;;14.20;2.40;;;21.90;99.90;;;;;;5073885;28;20509;-73
2022/08/01 09:21:13;;;;;;;11.38;1.92;;;21.90;99.90;;;;;;5073593;28;20048;-73
2022/08/01 09:23:44;;;;;;;12.75;2.88;;;21.90;99.90;;;;;;5073523;28;20469;-73
2022/08/01 09:26:10;;;;;;;12.75;2.25;;;22.00;99.90;;;;;;5073725;28;20177;-72
2022/08/01 09:28:36;;;;;;;11.55;2.00;;;22.10;99.90;;;;;;5057548;28;20041;-73
2022/08/01 09:31:14;;;;;;;11.18;1.70;;;22.20;99.90;;;;;;5073879;28;20088;-73
2022/08/01 09:33:51;;;;;;;11.35;2.20;;;22.30;99.90;;;;;;5073536;28;20052;-73
2022/08/01 09:36:18;;;;;;;12.45;2.45;;;22.40;99.90;;;;;;5073287;28;20052;-72
2022/08/01 09:38:43;;;;;;;10.50;2.33;;;22.60;99.90;;;;;;5073577;28;20048;-73
2022/08/01 09:41:11;;;;;;;8.05;1.95;;;22.70;99.90;;;;;;5073174;28;20043;-73
2022/08/01 09:43:37;;;;;;;12.35;2.67;;;22.70;99.90;;;;;;5073451;28;20045;-73
2022/08/01 09:46:11;;;;;;;8.63;1.90;;;22.80;99.90;;;;;;5073393;28;20089;-72
2022/08/01 09:48:39;;;;;;;10.82;2.25;;;22.80;99.90;;;;;;5074681;28;20052;-72
2022/08/01 09:51:05;;;;;;;9.85;1.95;;;22.80;99.90;;;;;;5073091;28;20117;-72
2022/08/01 09:53:45;;;;;;;12.48;2.50;;;22.70;99.90;;;;;;5073060;28;20086;-73
2022/08/01 09:56:12;;;;;;;10.70;1.90;;;22.70;99.90;;;;;;5073144;28;20075;-73
2022/08/01 09:58:53;;;;;;;9.25;2.17;;;22.80;99.90;;;;;;5072897;28;20044;-73
2022/08/01 10:01:22;;;;;;;11.23;2.40;;;23.00;99.90;;;;;;5072643;28;20120;-73
2022/08/01 10:04:03;;;;;;;9.35;1.98;;;23.10;99.90;;;;;;5072692;28;20041;-73
2022/08/01 10:06:28;;;;;;;13.43;2.17;;;23.20;99.90;;;;;;5072758;28;20599;-73
2022/08/01 10:08:54;;;;;;;9.30;1.90;;;23.20;99.90;;;;;;5072852;28;20048;-73
2022/08/01 10:11:21;;;;;;;10.45;1.60;;;23.20;99.90;;;;;;5072744;28;20052;-73
2022/08/01 10:13:48;;;;;;;9.88;1.52;;;23.30;99.90;;;;;;5072044;28;20056;-74
2022/08/01 10:16:14;;;;;;;9.20;1.65;;;23.40;99.90;;;;;;5055893;28;20048;-73
2022/08/01 10:18:41;;;;;;;10.23;1.63;;;23.60;99.90;;;;;;5072601;28;20044;-73
2022/08/01 10:21:07;;;;;;;9.70;1.60;;;23.60;99.50;;;;;;5073603;28;20048;-73
2022/08/01 10:23:37;;;;;;;7.95;2.00;;;23.80;99.90;;;;;;5072473;28;20036;-73
2022/08/01 10:26:05;;;;;;;9.57;1.30;;;24.00;98.10;;;;;;5072703;28;20055;-73
2022/08/01 10:28:34;;;;;;;8.15;1.60;;;24.10;97.70;;;;;;5072302;28;20488;-73
2022/08/01 10:31:01;;;;;;;8.27;1.40;;;24.00;96.80;;;;;;5055668;28;20087;-73
2022/08/01 10:33:28;;;;;;;9.98;1.58;;;24.00;96.90;;;;;;5072251;28;20116;-73
2022/08/01 10:35:54;;;;;;;6.82;1.50;;;23.90;96.10;;;;;;5072401;28;20053;-73
2022/08/01 10:38:20;;;;;;;12.63;1.88;;;23.90;96.30;;;;;;5072257;28;20040;-73
2022/08/01 10:40:45;;;;;;;9.73;1.92;;;23.90;95.90;;;;;;5073343;28;20051;-73
2022/08/01 10:43:12;;;;;;;8.73;1.63;;;24.10;97.30;;;;;;5073377;28;20036;-72
2022/08/01 10:45:39;;;;;;;7.30;1.52;;;24.20;96.40;;;;;;5071936;28;20041;-72
2022/08/01 10:48:11;;;;;;;8.85;1.63;;;24.30;94.70;;;;;;5072270;28;20048;-72
2022/08/01 10:50:44;;;;;;;7.77;1.90;;;24.40;93.60;;;;;;5071976;28;20184;-72
2022/08/01 10:53:15;;;;;;;6.07;1.20;;;24.50;91.20;;;;;;5073308;28;20115;-74
2022/08/01 10:55:56;;;;;;;5.35;1.15;;;24.40;93.00;;;;;;5072150;28;20182;-74
2022/08/01 10:58:32;;;;;;;8.15;1.33;;;24.30;91.00;;;;;;5071946;28;20032;-74
2022/08/01 11:01:23;;;;;;;9.40;1.65;;;24.30;90.00;;;;;;5071797;28;20040;-73
2022/08/01 11:04:00;;;;;;;7.80;1.58;;;24.30;90.00;;;;;;5071830;28;20123;-73
2022/08/01 11:07:01;;;;;;;7.38;1.50;;;24.10;88.90;;;;;;5055074;28;20119;-73
2022/08/01 11:09:30;;;;;;;6.70;1.58;;;23.90;90.70;;;;;;5072076;28;20080;-73
2022/08/01 11:11:57;;;;;;;10.73;1.50;;;24.00;92.40;;;;;;5071753;28;20450;-73
2022/08/01 11:14:23;;;;;;;9.65;1.55;;;24.20;92.20;;;;;;5071750;28;20037;-73
2022/08/01 11:16:48;;;;;;;6.72;1.55;;;24.50;91.00;;;;;;5072065;28;20097;-73
2022/08/01 11:19:14;;;;;;;10.45;1.63;;;24.50;87.40;;;;;;5072888;28;20492;-73
2022/08/01 11:21:52;;;;;;;9.85;1.40;;;24.50;88.60;;;;;;5071590;28;20120;-73
2022/08/01 11:24:45;;;;;;;5.78;1.02;;;24.70;83.30;;;;;;5071676;28;20493;-73
2022/08/01 11:27:20;;;;;;;7.00;1.35;;;24.90;79.30;;;;;;5076227;28;20040;-73
2022/08/01 11:30:08;;;;;;;7.78;1.80;;;25.10;81.80;;;;;;5076200;28;20036;-73
2022/08/01 11:32:44;;;;;;;5.85;1.40;;;25.30;77.20;;;;;;5059119;28;20174;-73
2022/08/01 11:35:10;;;;;;;7.25;1.50;;;25.50;78.10;;;;;;5075947;28;20082;-73
2022/08/01 11:37:37;;;;;;;10.95;1.80;;;25.50;79.80;;;;;;5075901;28;20129;-73
2022/08/01 11:40:25;;;;;;;10.05;1.67;;;25.60;81.50;;;;;;5058819;28;20041;-74
2022/08/01 11:43:12;;;;;;;10.85;1.88;;;25.70;76.80;;;;;;5058787;28;20044;-74
2022/08/01 11:45:51;;;;;;;6.47;1.17;;;25.90;75.20;;;;;;5058653;28;20036;-73
2022/08/01 11:48:22;;;;;;;11.18;2.00;;;25.90;71.00;;;;;;5058948;28;20622;-73
2022/08/01 11:50:50;;;;;;;8.45;1.60;;;25.80;75.20;;;;;;5075356;28;20111;-73
2022/08/01 11:53:18;;;;;;;7.32;1.52;;;26.00;71.70;;;;;;5075519;28;20032;-74
2022/08/01 11:55:49;;;;;;;7.97;1.77;;;26.00;74.20;;;;;;5058500;28;20051;-73
2022/08/01 11:58:16;;;;;;;9.23;2.05;;;25.90;69.70;;;;;;5075477;28;20519;-74
2022/08/01 12:00:49;;;;;;;8.32;1.40;;;25.70;69.10;;;;;;5075319;28;20040;-73
2022/08/01 12:03:14;;;;;;;6.15;1.23;;;25.40;66.80;;;;;;5075242;28;20555;-73
2022/08/01 12:05:44;;;;;;;9.05;1.38;;;25.30;68.70;;;;;;5075164;28;20049;-73
2022/08/01 12:08:10;;;;;;;6.00;1.38;;;25.30;71.40;;;;;;5075405;28;20086;-73
2022/08/01 12:10:36;;;;;;;7.57;1.35;;;25.50;72.20;;;;;;5075042;28;20471;-74
2022/08/01 12:13:06;;;;;;;8.00;1.50;;;25.60;69.10;;;;;;5074930;28;20037;-73
2022/08/01 12:15:37;;;;;;;9.18;1.25;;;25.80;70.90;;;;;;5074863;28;20036;-73
2022/08/01 12:18:05;;;;;;;6.72;1.20;;;26.00;70.70;;;;;;5074864;28;20501;-74
2022/08/01 12:20:43;;;;;;;8.50;1.83;;;26.00;68.80;;;;;;5074707;28;20045;-73
2022/08/01 12:23:16;;;;;;;5.85;1.90;;;25.70;65.70;;;;;;5074835;28;20029;-73
2022/08/01 12:25:45;;;;;;;4.95;1.40;;;25.60;66.50;;;;;;5074719;28;20075;-73
2022/08/01 12:28:13;;;;;;;10.00;1.58;;;25.50;68.70;;;;;;5074950;28;20044;-73
2022/08/01 12:30:39;;;;;;;8.07;1.50;;;25.40;65.90;;;;;;5058071;28;20516;-73
2022/08/01 12:33:10;;;;;;;11.75;1.80;;;25.40;67.20;;;;;;5074854;28;20127;-73
2022/08/01 12:35:37;;;;;;;11.60;1.30;;;25.40;67.90;;;;;;5074526;28;20044;-73
2022/08/01 12:38:13;;;;;;;9.25;1.20;;;25.60;67.90;;;;;;5073842;28;20044;-72
2022/08/01 12:40:42;;;;;;;8.40;1.60;;;25.70;69.30;;;;;;5074435;28;20041;-73
2022/08/01 12:43:09;;;;;;;7.18;1.20;;;25.80;67.30;;;;;;5074734;28;20032;-73
2022/08/01 12:45:39;;;;;;;8.70;1.63;;;25.80;65.60;;;;;;5074320;28;20041;-73
2022/08/01 12:48:16;;;;;;;6.20;1.10;;;25.80;61.90;;;;;;5075549;28;20032;-73
2022/08/01 12:50:44;;;;;;;6.55;1.25;;;26.00;62.20;;;;;;5074299;28;20051;-73